AirNav   Air Wisconsin Up To $57,000 Bonus
 
 1463 users online  

0FL7 WKMG-TV Heliport
Orlando, Florida, USA

GOING TO ORLANDO?


FAA INFORMATION EFFECTIVE 07 NOVEMBER 2019

Location

FAA Identifier: 0FL7
Lat/Long: 28-35-38.7000N 081-25-11.6000W
28-35.645000N 081-25.193333W
28.5940833,-81.4198889
(estimated)
Elevation: 98.8 ft. / 30.1 m (surveyed)
Variation: 04W (1995)
From city: 4 miles NW of ORLANDO, FL
Time zone: UTC -5 (UTC -4 during Daylight Saving Time)
Zip code: 32810

Heliport Operations

Heliport use: Private use. Permission required prior to landing
Activation date: 04/1999
Control tower: no
ARTCC: JACKSONVILLE CENTER
FSS: SAINT PETERSBURG FLIGHT SERVICE STATION
Attendance: DAWN-DUSK
Wind indicator: yes
Segmented circle: no
Lights: SS-SR

Heliport Communications

WX ASOS at ORL (5 nm SE): PHONE 407-658-6753
WX ASOS at MCO (11 nm SE): PHONE 407-855-5235
WX ASOS at SFB (15 nm NE): PHONE 407-321-9384
WX AWOS-3PT at ISM (18 nm S): 128.775 (407-847-0533)

Nearby radio navigation aids

VOR radial/distance  VOR name  Freq  Var
ORLr305/5.4ORLANDO VORTAC112.2000E

Heliport Services

Runway Information

Helipad H1

Dimensions: 35 x 35 ft. / 11 x 11 m
Surface: concrete
Runway edge lights: PERI
Latitude: 28-35.645000N
Longitude: 081-25.193333W
Elevation: 98.8 ft.
Traffic pattern: leftleft

Heliport Ownership and Management from official FAA records

Ownership: Privately-owned
Owner: GRAHAM MEDIA GROUP, ORLANDO, INC.
4466 N. JOHN YOUNG PARKWAY
ORLANDO, FL 32804
Phone 407-291-6000
Manager: FRANK TORBERT
4466 N. JOHN YOUNG PARKWAY
ORLANDO, FL 32804
Phone 407-291-6000

Additional Remarks

FOR CD CTC ORLANDO APCH AT 407-852-7553.

Instrument Procedures

There are no published instrument procedures at 0FL7.

Some nearby airports with instrument procedures:

KORL - Executive Airport (5 nm SE)
X04 - Orlando Apopka Airport (11 nm NW)
KMCO - Orlando International Airport (11 nm SE)
KSFB - Orlando Sanford International Airport (15 nm NE)
KISM - Kissimmee Gateway Airport (18 nm S)
 
Loc | Ops | Rwys | IFR | FBO | Links
Com | Nav | Svcs | Stats | Notes


 
Area around 0FL7 (WKMG-TV Heliport)
 
Road maps at: MapQuest Bing Google
 
Aerial photo
No photo
 
Sectional chart

 
Airport distance calculator
Flying to WKMG-TV Heliport? Find the distance to fly.

From to 0FL7

Sunrise and sunset
Times for 12-Nov-2019
 Local
(UTC-5)
 Zulu
(UTC)
Morning civil twilight06:2211:22
Sunrise06:4711:47
Sunset17:3322:33
Evening civil twilight17:5822:58

Current date and time
Zulu (UTC)  12-Nov-2019 15:42:50
Local (UTC-5)  12-Nov-2019 10:42:50
 
METAR
KORL 
5nm SE 
121453Z 24008KT 10SM CLR 26/18 A2999 RMK AO2 SLP160 T02560178 51009
KMCO 
12nm SE 
121453Z 23007KT 10SM FEW250 26/18 A3000 RMK AO2 SLP156 T02560178 51010
KSFB 
15nm NE 
121453Z 24005KT 10SM CLR 25/18 A2999 RMK AO2 SLP153 T02500183 53004
KISM 
19nm S 
121456Z 24005KT 10SM CLR 25/19 A3001 RMK AO2 SLP161 6//// T02500189 51011 PNO $
TAF
KMCO 
12nm SE 
121121Z 1212/1318 00000KT 6SM BR MIFG FEW050 TEMPO 1212/1213 3SM BR FM121500 23008KT P6SM SCT030 BKN250 FM122200 28006KT P6SM VCSH SCT040 BKN060 FM130200 34012KT P6SM VCSH SCT035 BKN060 FM131500 01015KT P6SM BKN060 BKN250
KSFB 
15nm NE 
121341Z 1214/1312 00000KT P6SM SKC FM121500 24008KT P6SM SCT030 BKN250 FM122200 28006KT P6SM VCSH SCT040 BKN060 FM130100 33012KT P6SM VCSH SCT035 BKN060
KISM 
19nm S 
121342Z 1214/1312 00000KT P6SM SKC FM121500 23007KT P6SM SCT030 BKN250 FM122200 28006KT P6SM VCSH SCT040 BKN060 FM130200 34012KT P6SM VCSH SCT035 BKN060
NOTAMs
Click for the latest NOTAMs
NOTAMs are issued by the DoD/FAA and will open in a separate window not controlled by AirNav.

 

 
 

Would you like to see your business listed on this page?

 If your business provides an interesting product or service to pilots, flight crews, aircraft, or users of the WKMG-TV Heliport, you should consider listing it here.  To start the listing process, click on the button below
 
Add a business
 

Other Pages about WKMG-TV Heliport

Update a link
 
Copyright © AirNav, LLC. All rights reserved. Privacy Policy  Contact